sensor_id;sensor_type;location;lat;lon;timestamp;temperature;humidity
25250;DHT22;13201;51.148;13.738;2022-11-20T00:02:25;-2.60;99.90
25250;DHT22;13201;51.148;13.738;2022-11-20T00:04:51;-2.70;99.90
25250;DHT22;13201;51.148;13.738;2022-11-20T00:07:17;-2.80;99.90
25250;DHT22;13201;51.148;13.738;2022-11-20T00:09:42;-2.70;99.90
25250;DHT22;13201;51.148;13.738;2022-11-20T00:12:08;-2.60;99.90
25250;DHT22;13201;51.148;13.738;2022-11-20T00:14:34;-2.60;99.90
25250;DHT22;13201;51.148;13.738;2022-11-20T00:16:59;-2.50;99.90
25250;DHT22;13201;51.148;13.738;2022-11-20T00:19:25;-2.70;99.90
25250;DHT22;13201;51.148;13.738;2022-11-20T00:21:51;-2.80;99.90
25250;DHT22;13201;51.148;13.738;2022-11-20T00:24:19;-2.90;99.90
25250;DHT22;13201;51.148;13.738;2022-11-20T00:26:44;-2.70;99.90
25250;DHT22;13201;51.148;13.738;2022-11-20T00:29:10;-2.70;99.90
25250;DHT22;13201;51.148;13.738;2022-11-20T00:31:36;-2.70;99.90
25250;DHT22;13201;51.148;13.738;2022-11-20T00:34:02;-2.60;99.90
25250;DHT22;13201;51.148;13.738;2022-11-20T00:36:28;-2.70;99.90
25250;DHT22;13201;51.148;13.738;2022-11-20T00:38:55;-2.70;99.90
25250;DHT22;13201;51.148;13.738;2022-11-20T00:41:21;-2.70;99.90
25250;DHT22;13201;51.148;13.738;2022-11-20T00:43:48;-2.80;99.90
25250;DHT22;13201;51.148;13.738;2022-11-20T00:46:16;-2.70;99.90
25250;DHT22;13201;51.148;13.738;2022-11-20T00:48:42;-2.60;99.90
25250;DHT22;13201;51.148;13.738;2022-11-20T00:51:09;-2.60;99.90
25250;DHT22;13201;51.148;13.738;2022-11-20T00:53:35;-2.60;99.90
25250;DHT22;13201;51.148;13.738;2022-11-20T00:56:06;-2.60;99.90
25250;DHT22;13201;51.148;13.738;2022-11-20T00:58:36;-2.70;99.90
25250;DHT22;13201;51.148;13.738;2022-11-20T01:01:05;-2.60;99.90
25250;DHT22;13201;51.148;13.738;2022-11-20T01:03:35;-2.80;99.90
25250;DHT22;13201;51.148;13.738;2022-11-20T01:31:20;-3.60;99.90
25250;DHT22;13201;51.148;13.738;2022-11-20T01:33:48;-3.70;99.90
25250;DHT22;13201;51.148;13.738;2022-11-20T01:36:15;-3.60;99.90
25250;DHT22;13201;51.148;13.738;2022-11-20T01:38:42;-3.40;99.90
25250;DHT22;13201;51.148;13.738;2022-11-20T01:41:08;-3.30;99.90
25250;DHT22;13201;51.148;13.738;2022-11-20T01:43:34;-3.20;99.90
25250;DHT22;13201;51.148;13.738;2022-11-20T01:46:35;-3.10;99.90
25250;DHT22;13201;51.148;13.738;2022-11-20T01:49:24;-3.10;99.90
25250;DHT22;13201;51.148;13.738;2022-11-20T01:51:52;-3.10;99.90
25250;DHT22;13201;51.148;13.738;2022-11-20T01:54:36;-3.00;99.90
25250;DHT22;13201;51.148;13.738;2022-11-20T01:57:04;-3.00;99.90
25250;DHT22;13201;51.148;13.738;2022-11-20T01:59:31;-3.00;99.90
25250;DHT22;13201;51.148;13.738;2022-11-20T02:01:58;-3.10;99.90
25250;DHT22;13201;51.148;13.738;2022-11-20T02:04:24;-3.10;99.90
25250;DHT22;13201;51.148;13.738;2022-11-20T02:06:55;-3.00;99.90
25250;DHT22;13201;51.148;13.738;2022-11-20T02:09:22;-3.00;99.90
25250;DHT22;13201;51.148;13.738;2022-11-20T02:11:48;-2.90;99.90
25250;DHT22;13201;51.148;13.738;2022-11-20T02:14:14;-2.90;99.90
25250;DHT22;13201;51.148;13.738;2022-11-20T02:16:44;-2.80;99.90
25250;DHT22;13201;51.148;13.738;2022-11-20T02:19:24;-2.70;99.90
25250;DHT22;13201;51.148;13.738;2022-11-20T02:22:21;-2.70;99.90
25250;DHT22;13201;51.148;13.738;2022-11-20T02:24:50;-2.70;99.90
25250;DHT22;13201;51.148;13.738;2022-11-20T02:27:17;-2.70;99.90
25250;DHT22;13201;51.148;13.738;2022-11-20T02:29:55;-2.70;99.90
25250;DHT22;13201;51.148;13.738;2022-11-20T02:32:29;-2.70;99.90
25250;DHT22;13201;51.148;13.738;2022-11-20T02:34:55;-2.80;99.90
25250;DHT22;13201;51.148;13.738;2022-11-20T02:37:23;-2.70;99.90
25250;DHT22;13201;51.148;13.738;2022-11-20T02:39:52;-2.70;99.90
25250;DHT22;13201;51.148;13.738;2022-11-20T02:42:18;-2.70;99.90
25250;DHT22;13201;51.148;13.738;2022-11-20T02:44:43;-2.70;99.90
25250;DHT22;13201;51.148;13.738;2022-11-20T02:47:09;-2.70;99.90
25250;DHT22;13201;51.148;13.738;2022-11-20T02:49:35;-2.80;99.90
25250;DHT22;13201;51.148;13.738;2022-11-20T02:52:01;-2.90;99.90
25250;DHT22;13201;51.148;13.738;2022-11-20T02:54:27;-2.90;99.90
25250;DHT22;13201;51.148;13.738;2022-11-20T02:56:52;-2.80;99.90
25250;DHT22;13201;51.148;13.738;2022-11-20T02:59:18;-2.90;99.90
25250;DHT22;13201;51.148;13.738;2022-11-20T03:01:44;-2.80;99.90
25250;DHT22;13201;51.148;13.738;2022-11-20T03:04:09;-2.70;99.90
25250;DHT22;13201;51.148;13.738;2022-11-20T03:06:35;-3.10;99.90
25250;DHT22;13201;51.148;13.738;2022-11-20T03:09:00;-3.00;99.90
25250;DHT22;13201;51.148;13.738;2022-11-20T03:11:26;-3.20;99.90
25250;DHT22;13201;51.148;13.738;2022-11-20T03:13:52;-3.20;99.90
25250;DHT22;13201;51.148;13.738;2022-11-20T03:16:20;-3.10;99.90
25250;DHT22;13201;51.148;13.738;2022-11-20T03:18:46;-3.10;99.90
25250;DHT22;13201;51.148;13.738;2022-11-20T03:21:13;-3.50;99.90
25250;DHT22;13201;51.148;13.738;2022-11-20T03:23:39;-3.60;99.90
25250;DHT22;13201;51.148;13.738;2022-11-20T03:26:20;-3.30;99.90
25250;DHT22;13201;51.148;13.738;2022-11-20T03:28:48;-3.20;99.90
25250;DHT22;13201;51.148;13.738;2022-11-20T03:31:15;-3.40;99.90
25250;DHT22;13201;51.148;13.738;2022-11-20T03:33:42;-3.40;99.90
25250;DHT22;13201;51.148;13.738;2022-11-20T03:36:11;-3.40;99.90
25250;DHT22;13201;51.148;13.738;2022-11-20T03:38:38;-3.40;99.90
25250;DHT22;13201;51.148;13.738;2022-11-20T03:41:26;-3.30;99.90
25250;DHT22;13201;51.148;13.738;2022-11-20T03:43:53;-3.50;99.90
25250;DHT22;13201;51.148;13.738;2022-11-20T03:46:19;-3.40;99.90
25250;DHT22;13201;51.148;13.738;2022-11-20T03:48:45;-3.40;99.90
25250;DHT22;13201;51.148;13.738;2022-11-20T03:53:42;-3.40;99.90
25250;DHT22;13201;51.148;13.738;2022-11-20T03:56:08;-3.40;99.90
25250;DHT22;13201;51.148;13.738;2022-11-20T03:58:35;-3.40;99.90
25250;DHT22;13201;51.148;13.738;2022-11-20T04:01:15;-3.50;99.90
25250;DHT22;13201;51.148;13.738;2022-11-20T04:03:42;-3.40;99.90
25250;DHT22;13201;51.148;13.738;2022-11-20T04:06:11;-3.40;99.90
25250;DHT22;13201;51.148;13.738;2022-11-20T04:08:37;-3.60;99.90
25250;DHT22;13201;51.148;13.738;2022-11-20T04:11:16;-3.50;99.90
25250;DHT22;13201;51.148;13.738;2022-11-20T04:13:46;-3.50;99.90
25250;DHT22;13201;51.148;13.738;2022-11-20T04:16:12;-3.50;99.90
25250;DHT22;13201;51.148;13.738;2022-11-20T04:18:37;-3.50;99.90
25250;DHT22;13201;51.148;13.738;2022-11-20T04:21:04;-3.50;99.90
25250;DHT22;13201;51.148;13.738;2022-11-20T04:23:30;-3.60;99.90
25250;DHT22;13201;51.148;13.738;2022-11-20T04:26:01;-3.70;99.90
25250;DHT22;13201;51.148;13.738;2022-11-20T04:28:27;-3.70;99.90
25250;DHT22;13201;51.148;13.738;2022-11-20T04:30:53;-3.50;99.90
25250;DHT22;13201;51.148;13.738;2022-11-20T04:33:19;-3.40;99.90
25250;DHT22;13201;51.148;13.738;2022-11-20T04:35:47;-3.60;99.90
25250;DHT22;13201;51.148;13.738;2022-11-20T04:38:13;-3.40;99.90
25250;DHT22;13201;51.148;13.738;2022-11-20T04:40:38;-3.30;99.90
25250;DHT22;13201;51.148;13.738;2022-11-20T04:43:04;-3.30;99.90
25250;DHT22;13201;51.148;13.738;2022-11-20T04:45:30;-3.30;99.90
25250;DHT22;13201;51.148;13.738;2022-11-20T04:47:55;-3.70;99.90
25250;DHT22;13201;51.148;13.738;2022-11-20T04:50:21;-3.80;99.90
25250;DHT22;13201;51.148;13.738;2022-11-20T04:52:47;-3.60;99.90
25250;DHT22;13201;51.148;13.738;2022-11-20T04:55:12;-3.50;99.90
25250;DHT22;13201;51.148;13.738;2022-11-20T04:57:38;-3.40;99.90
25250;DHT22;13201;51.148;13.738;2022-11-20T05:00:04;-3.60;99.90
25250;DHT22;13201;51.148;13.738;2022-11-20T05:02:31;-3.60;99.90
25250;DHT22;13201;51.148;13.738;2022-11-20T05:04:57;-3.70;99.90
25250;DHT22;13201;51.148;13.738;2022-11-20T05:07:22;-3.80;99.90
25250;DHT22;13201;51.148;13.738;2022-11-20T05:09:48;-3.90;99.90
25250;DHT22;13201;51.148;13.738;2022-11-20T05:12:13;-3.70;99.90
25250;DHT22;13201;51.148;13.738;2022-11-20T05:14:39;-3.80;99.90
25250;DHT22;13201;51.148;13.738;2022-11-20T05:17:05;-3.80;99.90
25250;DHT22;13201;51.148;13.738;2022-11-20T05:19:30;-3.80;99.90
25250;DHT22;13201;51.148;13.738;2022-11-20T05:21:56;-3.70;99.90
25250;DHT22;13201;51.148;13.738;2022-11-20T05:24:22;-3.60;99.90
25250;DHT22;13201;51.148;13.738;2022-11-20T05:26:47;-3.50;99.90
25250;DHT22;13201;51.148;13.738;2022-11-20T05:29:13;-3.60;99.90
25250;DHT22;13201;51.148;13.738;2022-11-20T05:31:40;-3.40;99.90
25250;DHT22;13201;51.148;13.738;2022-11-20T05:34:06;-3.50;99.90
25250;DHT22;13201;51.148;13.738;2022-11-20T05:36:32;-3.30;99.90
25250;DHT22;13201;51.148;13.738;2022-11-20T05:38:58;-3.60;99.90
25250;DHT22;13201;51.148;13.738;2022-11-20T05:41:24;-3.70;99.90
25250;DHT22;13201;51.148;13.738;2022-11-20T05:43:50;-3.70;99.90
25250;DHT22;13201;51.148;13.738;2022-11-20T05:46:18;-3.60;99.90
25250;DHT22;13201;51.148;13.738;2022-11-20T05:48:44;-3.70;99.90
25250;DHT22;13201;51.148;13.738;2022-11-20T05:51:12;-3.70;99.90
25250;DHT22;13201;51.148;13.738;2022-11-20T05:53:37;-3.90;99.90
25250;DHT22;13201;51.148;13.738;2022-11-20T05:56:15;-3.90;99.90
25250;DHT22;13201;51.148;13.738;2022-11-20T05:58:41;-3.90;99.90
25250;DHT22;13201;51.148;13.738;2022-11-20T06:01:19;-3.80;99.90
25250;DHT22;13201;51.148;13.738;2022-11-20T06:03:45;-3.90;99.90
25250;DHT22;13201;51.148;13.738;2022-11-20T06:06:16;-3.90;99.90
25250;DHT22;13201;51.148;13.738;2022-11-20T06:08:43;-3.90;99.90
25250;DHT22;13201;51.148;13.738;2022-11-20T06:11:10;-3.90;99.90
25250;DHT22;13201;51.148;13.738;2022-11-20T06:13:37;-3.90;99.90
25250;DHT22;13201;51.148;13.738;2022-11-20T06:16:04;-4.10;99.90
25250;DHT22;13201;51.148;13.738;2022-11-20T06:18:30;-3.90;99.90
25250;DHT22;13201;51.148;13.738;2022-11-20T06:23:32;-4.10;99.90
25250;DHT22;13201;51.148;13.738;2022-11-20T06:26:00;-3.90;99.90
25250;DHT22;13201;51.148;13.738;2022-11-20T06:28:26;-3.90;99.90
25250;DHT22;13201;51.148;13.738;2022-11-20T06:30:52;-3.90;99.90
25250;DHT22;13201;51.148;13.738;2022-11-20T06:33:18;-3.80;99.90
25250;DHT22;13201;51.148;13.738;2022-11-20T06:35:43;-3.90;99.90
25250;DHT22;13201;51.148;13.738;2022-11-20T06:38:09;-4.00;99.90
25250;DHT22;13201;51.148;13.738;2022-11-20T06:40:35;-4.10;99.90
25250;DHT22;13201;51.148;13.738;2022-11-20T06:43:00;-4.00;99.90
25250;DHT22;13201;51.148;13.738;2022-11-20T06:45:26;-4.00;99.90
25250;DHT22;13201;51.148;13.738;2022-11-20T06:47:52;-4.00;99.90
25250;DHT22;13201;51.148;13.738;2022-11-20T06:50:17;-3.90;99.90
25250;DHT22;13201;51.148;13.738;2022-11-20T06:52:43;-3.90;99.90
25250;DHT22;13201;51.148;13.738;2022-11-20T06:55:08;-4.10;99.90
25250;DHT22;13201;51.148;13.738;2022-11-20T06:57:34;-4.20;99.90
25250;DHT22;13201;51.148;13.738;2022-11-20T07:00:00;-4.10;99.90
25250;DHT22;13201;51.148;13.738;2022-11-20T07:02:25;-3.90;99.90
25250;DHT22;13201;51.148;13.738;2022-11-20T07:04:51;-3.90;99.90
25250;DHT22;13201;51.148;13.738;2022-11-20T07:07:16;-4.10;99.90
25250;DHT22;13201;51.148;13.738;2022-11-20T07:09:42;-4.00;99.90
25250;DHT22;13201;51.148;13.738;2022-11-20T07:12:08;-4.00;99.90
25250;DHT22;13201;51.148;13.738;2022-11-20T07:14:33;-4.00;99.90
25250;DHT22;13201;51.148;13.738;2022-11-20T07:16:59;-3.90;99.90
25250;DHT22;13201;51.148;13.738;2022-11-20T07:19:25;-3.80;99.90
25250;DHT22;13201;51.148;13.738;2022-11-20T07:21:50;-3.80;99.90
25250;DHT22;13201;51.148;13.738;2022-11-20T07:24:16;-3.70;99.90
25250;DHT22;13201;51.148;13.738;2022-11-20T07:26:42;-3.90;99.90
25250;DHT22;13201;51.148;13.738;2022-11-20T07:29:11;-3.70;99.90
25250;DHT22;13201;51.148;13.738;2022-11-20T07:31:36;-3.60;99.90
25250;DHT22;13201;51.148;13.738;2022-11-20T07:34:02;-3.60;99.90
25250;DHT22;13201;51.148;13.738;2022-11-20T07:36:27;-3.60;99.90
25250;DHT22;13201;51.148;13.738;2022-11-20T07:38:53;-3.40;99.90
25250;DHT22;13201;51.148;13.738;2022-11-20T07:41:19;-3.40;99.90
25250;DHT22;13201;51.148;13.738;2022-11-20T07:43:45;-3.40;99.90
25250;DHT22;13201;51.148;13.738;2022-11-20T07:46:10;-3.50;99.90
25250;DHT22;13201;51.148;13.738;2022-11-20T07:48:36;-3.30;99.90
25250;DHT22;13201;51.148;13.738;2022-11-20T07:51:02;-3.20;99.90
25250;DHT22;13201;51.148;13.738;2022-11-20T07:53:27;-3.40;99.90
25250;DHT22;13201;51.148;13.738;2022-11-20T07:55:53;-3.30;99.90
25250;DHT22;13201;51.148;13.738;2022-11-20T07:58:20;-3.40;99.90
25250;DHT22;13201;51.148;13.738;2022-11-20T08:00:45;-3.40;99.90
25250;DHT22;13201;51.148;13.738;2022-11-20T08:03:11;-3.40;99.90
25250;DHT22;13201;51.148;13.738;2022-11-20T08:05:37;-3.00;99.90
25250;DHT22;13201;51.148;13.738;2022-11-20T08:08:03;-3.00;99.90
25250;DHT22;13201;51.148;13.738;2022-11-20T08:10:29;-2.90;99.90
25250;DHT22;13201;51.148;13.738;2022-11-20T08:12:54;-2.90;99.90
25250;DHT22;13201;51.148;13.738;2022-11-20T08:15:39;-2.70;99.90
25250;DHT22;13201;51.148;13.738;2022-11-20T08:18:09;-2.80;99.90
25250;DHT22;13201;51.148;13.738;2022-11-20T08:20:36;-2.70;99.90
25250;DHT22;13201;51.148;13.738;2022-11-20T08:23:04;-2.50;99.90
25250;DHT22;13201;51.148;13.738;2022-11-20T08:25:35;-2.60;99.90
25250;DHT22;13201;51.148;13.738;2022-11-20T08:28:03;-2.50;99.90
25250;DHT22;13201;51.148;13.738;2022-11-20T08:30:30;-2.60;99.90
25250;DHT22;13201;51.148;13.738;2022-11-20T08:33:04;-2.60;99.90
25250;DHT22;13201;51.148;13.738;2022-11-20T08:35:36;-2.70;99.90
25250;DHT22;13201;51.148;13.738;2022-11-20T08:38:04;-2.60;99.90
25250;DHT22;13201;51.148;13.738;2022-11-20T08:40:29;-2.50;99.90
25250;DHT22;13201;51.148;13.738;2022-11-20T08:42:55;-2.40;99.90
25250;DHT22;13201;51.148;13.738;2022-11-20T08:45:21;-2.30;99.90
25250;DHT22;13201;51.148;13.738;2022-11-20T08:47:47;-2.20;99.90
25250;DHT22;13201;51.148;13.738;2022-11-20T08:50:15;-2.20;99.90
25250;DHT22;13201;51.148;13.738;2022-11-20T08:52:41;-2.00;99.90
25250;DHT22;13201;51.148;13.738;2022-11-20T08:55:07;-1.90;99.90
25250;DHT22;13201;51.148;13.738;2022-11-20T08:57:34;-1.80;99.90
25250;DHT22;13201;51.148;13.738;2022-11-20T09:00:00;-1.70;99.90
25250;DHT22;13201;51.148;13.738;2022-11-20T09:02:26;-1.90;99.90
25250;DHT22;13201;51.148;13.738;2022-11-20T09:04:52;-1.70;99.90
25250;DHT22;13201;51.148;13.738;2022-11-20T09:07:19;-1.70;99.90
25250;DHT22;13201;51.148;13.738;2022-11-20T09:09:44;-1.70;99.90
25250;DHT22;13201;51.148;13.738;2022-11-20T09:12:10;-1.60;99.90
25250;DHT22;13201;51.148;13.738;2022-11-20T09:14:36;-1.60;99.90
25250;DHT22;13201;51.148;13.738;2022-11-20T09:17:01;-1.50;99.90
25250;DHT22;13201;51.148;13.738;2022-11-20T09:19:27;-1.50;99.90
25250;DHT22;13201;51.148;13.738;2022-11-20T09:21:53;-1.30;99.90
25250;DHT22;13201;51.148;13.738;2022-11-20T09:24:19;-1.30;99.90
25250;DHT22;13201;51.148;13.738;2022-11-20T09:26:46;-1.20;99.90
25250;DHT22;13201;51.148;13.738;2022-11-20T09:29:12;-1.10;99.90
25250;DHT22;13201;51.148;13.738;2022-11-20T09:31:37;-1.00;99.90
25250;DHT22;13201;51.148;13.738;2022-11-20T09:34:03;-0.90;99.90
25250;DHT22;13201;51.148;13.738;2022-11-20T09:36:29;-0.80;99.90
25250;DHT22;13201;51.148;13.738;2022-11-20T09:38:54;-0.80;99.90
25250;DHT22;13201;51.148;13.738;2022-11-20T09:55:36;-0.40;99.90
25250;DHT22;13201;51.148;13.738;2022-11-20T09:58:06;-0.20;99.90
25250;DHT22;13201;51.148;13.738;2022-11-20T10:00:32;-0.30;99.90
25250;DHT22;13201;51.148;13.738;2022-11-20T10:05:44;-0.10;99.90
25250;DHT22;13201;51.148;13.738;2022-11-20T10:28:27;0.60;99.90
25250;DHT22;13201;51.148;13.738;2022-11-20T10:30:25;0.60;99.90
25250;DHT22;13201;51.148;13.738;2022-11-20T10:33:13;0.70;99.90
25250;DHT22;13201;51.148;13.738;2022-11-20T10:35:43;0.80;99.90
25250;DHT22;13201;51.148;13.738;2022-11-20T10:41:02;0.50;99.90
25250;DHT22;13201;51.148;13.738;2022-11-20T10:43:49;0.70;99.90
25250;DHT22;13201;51.148;13.738;2022-11-20T10:46:20;0.90;99.90
25250;DHT22;13201;51.148;13.738;2022-11-20T10:48:50;1.00;99.90
25250;DHT22;13201;51.148;13.738;2022-11-20T10:56:52;0.90;99.90
25250;DHT22;13201;51.148;13.738;2022-11-20T11:02:23;1.10;99.90
25250;DHT22;13201;51.148;13.738;2022-11-20T11:04:51;1.70;99.90
25250;DHT22;13201;51.148;13.738;2022-11-20T11:07:34;1.60;99.90
25250;DHT22;13201;51.148;13.738;2022-11-20T11:10:01;1.60;99.90
25250;DHT22;13201;51.148;13.738;2022-11-20T11:12:28;2.00;99.90
25250;DHT22;13201;51.148;13.738;2022-11-20T11:14:55;2.00;99.90
25250;DHT22;13201;51.148;13.738;2022-11-20T11:17:47;1.80;99.90
25250;DHT22;13201;51.148;13.738;2022-11-20T11:20:17;1.90;99.90
25250;DHT22;13201;51.148;13.738;2022-11-20T11:22:52;1.80;99.90
25250;DHT22;13201;51.148;13.738;2022-11-20T11:27:58;1.80;99.90
25250;DHT22;13201;51.148;13.738;2022-11-20T11:30:25;2.00;99.90
25250;DHT22;13201;51.148;13.738;2022-11-20T11:33:03;2.10;99.90
25250;DHT22;13201;51.148;13.738;2022-11-20T11:35:30;2.20;99.90
25250;DHT22;13201;51.148;13.738;2022-11-20T11:38:06;2.30;99.90
25250;DHT22;13201;51.148;13.738;2022-11-20T11:40:35;2.40;99.90
25250;DHT22;13201;51.148;13.738;2022-11-20T11:43:05;2.50;99.90
25250;DHT22;13201;51.148;13.738;2022-11-20T11:45:55;2.50;99.90
25250;DHT22;13201;51.148;13.738;2022-11-20T11:48:21;2.50;99.90
25250;DHT22;13201;51.148;13.738;2022-11-20T11:50:51;2.40;99.90
25250;DHT22;13201;51.148;13.738;2022-11-20T11:53:19;2.30;99.90
25250;DHT22;13201;51.148;13.738;2022-11-20T11:56:08;2.40;99.90
25250;DHT22;13201;51.148;13.738;2022-11-20T11:58:51;2.80;99.90
25250;DHT22;13201;51.148;13.738;2022-11-20T12:01:55;2.90;99.90
25250;DHT22;13201;51.148;13.738;2022-11-20T12:04:43;2.50;99.90
25250;DHT22;13201;51.148;13.738;2022-11-20T12:07:22;2.60;99.90
25250;DHT22;13201;51.148;13.738;2022-11-20T12:09:53;2.40;99.90
25250;DHT22;13201;51.148;13.738;2022-11-20T12:12:27;2.30;99.90
25250;DHT22;13201;51.148;13.738;2022-11-20T12:14:55;2.40;99.90
25250;DHT22;13201;51.148;13.738;2022-11-20T12:17:22;2.30;99.90
25250;DHT22;13201;51.148;13.738;2022-11-20T12:19:47;2.40;99.90
25250;DHT22;13201;51.148;13.738;2022-11-20T12:22:31;2.30;99.90
25250;DHT22;13201;51.148;13.738;2022-11-20T12:25:11;2.40;99.90
25250;DHT22;13201;51.148;13.738;2022-11-20T12:31:24;2.30;99.90
25250;DHT22;13201;51.148;13.738;2022-11-20T12:34:02;2.10;99.90
25250;DHT22;13201;51.148;13.738;2022-11-20T12:36:44;2.00;99.90
25250;DHT22;13201;51.148;13.738;2022-11-20T12:39:29;1.70;99.90
25250;DHT22;13201;51.148;13.738;2022-11-20T12:45:06;1.70;99.90
25250;DHT22;13201;51.148;13.738;2022-11-20T12:56:43;1.90;99.90
25250;DHT22;13201;51.148;13.738;2022-11-20T12:59:32;1.80;99.90
25250;DHT22;13201;51.148;13.738;2022-11-20T13:07:35;1.90;99.90
25250;DHT22;13201;51.148;13.738;2022-11-20T13:10:01;1.70;99.90
25250;DHT22;13201;51.148;13.738;2022-11-20T13:15:08;1.70;99.90
25250;DHT22;13201;51.148;13.738;2022-11-20T13:17:53;1.70;99.90
25250;DHT22;13201;51.148;13.738;2022-11-20T13:20:20;1.70;99.90
25250;DHT22;13201;51.148;13.738;2022-11-20T13:22:47;1.60;99.90
25250;DHT22;13201;51.148;13.738;2022-11-20T13:25:35;1.60;99.90
25250;DHT22;13201;51.148;13.738;2022-11-20T13:28:59;1.40;99.90
25250;DHT22;13201;51.148;13.738;2022-11-20T13:30:54;1.40;99.90
25250;DHT22;13201;51.148;13.738;2022-11-20T13:33:44;1.50;99.90
25250;DHT22;13201;51.148;13.738;2022-11-20T13:36:27;1.50;99.90
25250;DHT22;13201;51.148;13.738;2022-11-20T13:38:55;1.50;99.90
25250;DHT22;13201;51.148;13.738;2022-11-20T13:41:36;1.40;99.90
25250;DHT22;13201;51.148;13.738;2022-11-20T13:46:37;1.30;99.90
25250;DHT22;13201;51.148;13.738;2022-11-20T13:49:16;1.20;99.90
25250;DHT22;13201;51.148;13.738;2022-11-20T13:51:45;1.20;99.90
25250;DHT22;13201;51.148;13.738;2022-11-20T13:56:59;1.30;99.90
25250;DHT22;13201;51.148;13.738;2022-11-20T13:59:40;1.20;99.90
25250;DHT22;13201;51.148;13.738;2022-11-20T14:02:17;1.20;99.90
25250;DHT22;13201;51.148;13.738;2022-11-20T14:04:48;1.30;99.90
25250;DHT22;13201;51.148;13.738;2022-11-20T14:07:15;1.30;99.90
25250;DHT22;13201;51.148;13.738;2022-11-20T14:09:51;1.30;99.90
25250;DHT22;13201;51.148;13.738;2022-11-20T14:12:19;1.20;99.90
25250;DHT22;13201;51.148;13.738;2022-11-20T14:14:51;1.30;99.90
25250;DHT22;13201;51.148;13.738;2022-11-20T14:17:20;1.40;99.90
25250;DHT22;13201;51.148;13.738;2022-11-20T14:19:47;1.50;99.90
25250;DHT22;13201;51.148;13.738;2022-11-20T14:22:23;1.20;99.90
25250;DHT22;13201;51.148;13.738;2022-11-20T14:25:21;0.90;99.90
25250;DHT22;13201;51.148;13.738;2022-11-20T14:27:52;0.90;99.90
25250;DHT22;13201;51.148;13.738;2022-11-20T14:30:44;0.70;99.90
25250;DHT22;13201;51.148;13.738;2022-11-20T14:33:12;0.80;99.90
25250;DHT22;13201;51.148;13.738;2022-11-20T14:35:47;0.80;99.90
25250;DHT22;13201;51.148;13.738;2022-11-20T14:38:16;0.80;99.90
25250;DHT22;13201;51.148;13.738;2022-11-20T14:40:42;0.70;99.90
25250;DHT22;13201;51.148;13.738;2022-11-20T14:43:26;0.80;99.90
25250;DHT22;13201;51.148;13.738;2022-11-20T14:48:29;0.70;99.90
25250;DHT22;13201;51.148;13.738;2022-11-20T14:50:56;0.70;99.90
25250;DHT22;13201;51.148;13.738;2022-11-20T14:53:25;0.80;99.90
25250;DHT22;13201;51.148;13.738;2022-11-20T14:56:09;0.80;99.90
25250;DHT22;13201;51.148;13.738;2022-11-20T14:58:34;0.90;99.90
25250;DHT22;13201;51.148;13.738;2022-11-20T15:01:05;0.70;99.90
25250;DHT22;13201;51.148;13.738;2022-11-20T15:03:40;0.60;99.90
25250;DHT22;13201;51.148;13.738;2022-11-20T15:06:09;0.70;99.90
25250;DHT22;13201;51.148;13.738;2022-11-20T15:08:35;0.60;99.90
25250;DHT22;13201;51.148;13.738;2022-11-20T15:11:02;0.50;99.90
25250;DHT22;13201;51.148;13.738;2022-11-20T15:15:58;0.50;99.90
25250;DHT22;13201;51.148;13.738;2022-11-20T15:18:31;0.50;99.90
25250;DHT22;13201;51.148;13.738;2022-11-20T15:21:00;0.30;99.90
25250;DHT22;13201;51.148;13.738;2022-11-20T15:23:27;0.30;99.90
25250;DHT22;13201;51.148;13.738;2022-11-20T15:25:53;0.30;99.90
25250;DHT22;13201;51.148;13.738;2022-11-20T15:30:48;0.20;99.90
25250;DHT22;13201;51.148;13.738;2022-11-20T15:33:14;0.10;99.90
25250;DHT22;13201;51.148;13.738;2022-11-20T15:35:40;-0.10;99.90
25250;DHT22;13201;51.148;13.738;2022-11-20T15:38:06;-0.10;99.90
25250;DHT22;13201;51.148;13.738;2022-11-20T15:40:32;0.10;99.90
25250;DHT22;13201;51.148;13.738;2022-11-20T15:42:58;0.00;99.90
25250;DHT22;13201;51.148;13.738;2022-11-20T15:45:59;0.00;99.90
25250;DHT22;13201;51.148;13.738;2022-11-20T15:48:38;-0.20;99.90
25250;DHT22;13201;51.148;13.738;2022-11-20T15:53:37;-0.10;99.90
25250;DHT22;13201;51.148;13.738;2022-11-20T15:56:03;-0.10;99.90
25250;DHT22;13201;51.148;13.738;2022-11-20T15:58:29;0.00;99.90
25250;DHT22;13201;51.148;13.738;2022-11-20T16:00:56;0.00;99.90
25250;DHT22;13201;51.148;13.738;2022-11-20T16:03:22;0.00;99.90
25250;DHT22;13201;51.148;13.738;2022-11-20T16:05:48;0.20;99.90
25250;DHT22;13201;51.148;13.738;2022-11-20T16:08:14;0.10;99.90
25250;DHT22;13201;51.148;13.738;2022-11-20T16:10:40;0.20;99.90
25250;DHT22;13201;51.148;13.738;2022-11-20T16:13:16;-0.10;99.90
25250;DHT22;13201;51.148;13.738;2022-11-20T16:16:05;0.00;99.90
25250;DHT22;13201;51.148;13.738;2022-11-20T16:18:33;0.00;99.90
25250;DHT22;13201;51.148;13.738;2022-11-20T16:20:59;0.00;99.90
25250;DHT22;13201;51.148;13.738;2022-11-20T16:23:24;0.00;99.90
25250;DHT22;13201;51.148;13.738;2022-11-20T16:25:50;0.00;99.90
25250;DHT22;13201;51.148;13.738;2022-11-20T16:28:16;0.00;99.90
25250;DHT22;13201;51.148;13.738;2022-11-20T16:30:42;0.10;99.90
25250;DHT22;13201;51.148;13.738;2022-11-20T16:33:15;0.20;99.90
25250;DHT22;13201;51.148;13.738;2022-11-20T16:35:42;0.10;99.90
25250;DHT22;13201;51.148;13.738;2022-11-20T16:38:08;0.20;99.90
25250;DHT22;13201;51.148;13.738;2022-11-20T16:40:34;0.20;99.90
25250;DHT22;13201;51.148;13.738;2022-11-20T16:43:09;0.20;99.90
25250;DHT22;13201;51.148;13.738;2022-11-20T16:45:43;0.10;99.90
25250;DHT22;13201;51.148;13.738;2022-11-20T16:48:12;0.00;99.90
25250;DHT22;13201;51.148;13.738;2022-11-20T16:50:48;0.00;99.90
25250;DHT22;13201;51.148;13.738;2022-11-20T16:53:15;0.10;99.90
25250;DHT22;13201;51.148;13.738;2022-11-20T16:55:41;0.00;99.90
25250;DHT22;13201;51.148;13.738;2022-11-20T16:58:07;-0.20;99.90
25250;DHT22;13201;51.148;13.738;2022-11-20T17:00:36;-0.20;99.90
25250;DHT22;13201;51.148;13.738;2022-11-20T17:03:02;-0.20;99.90
25250;DHT22;13201;51.148;13.738;2022-11-20T17:05:32;-0.20;99.90
25250;DHT22;13201;51.148;13.738;2022-11-20T17:07:58;-0.20;99.90
25250;DHT22;13201;51.148;13.738;2022-11-20T17:10:24;-0.20;99.90
25250;DHT22;13201;51.148;13.738;2022-11-20T17:12:50;-0.10;99.90
25250;DHT22;13201;51.148;13.738;2022-11-20T17:15:16;-0.30;99.90
25250;DHT22;13201;51.148;13.738;2022-11-20T17:17:41;-0.50;99.90
25250;DHT22;13201;51.148;13.738;2022-11-20T17:20:07;-0.60;99.90
25250;DHT22;13201;51.148;13.738;2022-11-20T17:22:33;-0.60;99.90
25250;DHT22;13201;51.148;13.738;2022-11-20T17:24:59;-0.40;99.90
25250;DHT22;13201;51.148;13.738;2022-11-20T17:27:24;-0.30;99.90
25250;DHT22;13201;51.148;13.738;2022-11-20T17:29:51;-0.30;99.90
25250;DHT22;13201;51.148;13.738;2022-11-20T17:32:19;-0.30;99.90
25250;DHT22;13201;51.148;13.738;2022-11-20T17:34:45;-0.40;99.90